Time;durP1;ratioP1;P1;durP2;ratioP2;P2;SDS_P1;SDS_P2;PMS_P1;PMS_P2;Temp;Humidity;BMP_temperature;BMP_pressure;BME280_temperature;BME280_humidity;BME280_pressure;Samples;Min_cycle;Max_cycle;Signal;HPM_P1;HPM_P2
2023/10/02 00:00:43;;;;;;;0.60;0.52;;;;;;;15.26;92.21;100592.94;5128144;28;20034;-61
2023/10/02 00:03:11;;;;;;;2.58;1.00;;;;;;;15.15;92.12;100574.91;5128339;28;20112;-62
2023/10/02 00:05:40;;;;;;;0.60;0.60;;;;;;;15.11;92.71;100576.72;5127662;28;20083;-64
2023/10/02 00:08:25;;;;;;;1.15;0.93;;;;;;;15.04;93.25;100569.94;5128111;28;20030;-61
2023/10/02 00:10:50;;;;;;;1.88;1.52;;;;;;;14.96;94.70;100564.91;5127749;28;20042;-62
2023/10/02 00:13:18;;;;;;;2.90;1.02;;;;;;;14.92;95.01;100546.72;5128044;28;20507;-62
2023/10/02 00:15:44;;;;;;;3.28;1.48;;;;;;;14.98;95.29;100552.63;5127801;28;20060;-61
2023/10/02 00:18:09;;;;;;;1.25;1.05;;;;;;;14.99;95.72;100550.88;5127841;28;20479;-63
2023/10/02 00:20:35;;;;;;;1.48;1.20;;;;;;;15.02;95.71;100556.03;5109133;28;20114;-62
2023/10/02 00:23:01;;;;;;;1.75;1.55;;;;;;;15.03;96.12;100560.34;5127597;28;20023;-62
2023/10/02 00:25:27;;;;;;;2.05;1.38;;;;;;;14.98;96.69;100547.41;5127565;28;20467;-62
2023/10/02 00:27:54;;;;;;;2.47;1.50;;;;;;;15.04;96.59;100545.53;5127716;28;20024;-62
2023/10/02 00:30:30;;;;;;;2.13;1.48;;;;;;;15.01;96.92;100538.63;5127526;28;20038;-62
2023/10/02 00:32:55;;;;;;;2.25;1.75;;;;;;;15.05;97.13;100545.50;5109090;28;20016;-62
2023/10/02 00:35:22;;;;;;;2.83;1.65;;;;;;;15.02;97.30;100529.88;5127359;28;20083;-62
2023/10/02 00:37:47;;;;;;;4.13;1.80;;;;;;;14.93;98.01;100515.31;5127602;28;20032;-63
2023/10/02 00:40:21;;;;;;;3.60;1.58;;;;;;;15.05;98.14;100535.03;5127287;28;20024;-62
2023/10/02 00:42:55;;;;;;;2.75;1.73;;;;;;;15.06;98.18;100547.25;5127151;28;20077;-61
2023/10/02 00:45:21;;;;;;;2.42;1.60;;;;;;;15.07;98.48;100543.72;5127164;28;20024;-61
2023/10/02 00:47:49;;;;;;;5.40;1.90;;;;;;;15.08;99.01;100540.19;5127296;28;20228;-62
2023/10/02 00:50:22;;;;;;;3.58;1.50;;;;;;;15.10;99.08;100537.53;5126886;28;20383;-62
2023/10/02 00:52:50;;;;;;;1.75;1.30;;;;;;;15.11;99.14;100534.03;5127266;28;20092;-62
2023/10/02 00:55:20;;;;;;;2.97;1.55;;;;;;;15.14;98.95;100539.19;5126880;28;20047;-62
2023/10/02 00:57:50;;;;;;;2.20;1.90;;;;;;;15.16;99.09;100541.78;5126963;28;20027;-61
2023/10/02 01:00:20;;;;;;;10.88;2.05;;;;;;;15.17;99.22;100546.09;5126835;28;20016;-63
2023/10/02 01:02:59;;;;;;;2.75;1.85;;;;;;;15.19;99.24;100544.31;5127113;28;20105;-61
2023/10/02 01:05:30;;;;;;;3.63;2.10;;;;;;;15.13;99.34;100532.22;5126442;28;20558;-61
2023/10/02 01:07:58;;;;;;;5.15;1.95;;;;;;;15.19;99.73;100541.69;5126618;28;20024;-62
2023/10/02 01:10:29;;;;;;;2.17;1.88;;;;;;;15.17;99.37;100535.63;5126662;28;20024;-61
2023/10/02 01:13:06;;;;;;;2.38;1.33;;;;;;;15.16;99.82;100526.91;5126818;28;20019;-62
2023/10/02 01:15:32;;;;;;;1.80;1.33;;;;;;;15.22;99.86;100532.00;5126838;28;20020;-60
2023/10/02 01:18:21;;;;;;;3.50;2.08;;;;;;;15.22;99.98;100539.00;5126856;28;20028;-61
2023/10/02 01:20:48;;;;;;;4.80;1.52;;;;;;;15.22;100.00;100533.75;5126362;28;20034;-61
2023/10/02 01:23:16;;;;;;;8.23;2.00;;;;;;;15.22;100.00;100534.59;5126646;28;20036;-60
2023/10/02 01:25:49;;;;;;;4.88;2.10;;;;;;;15.23;100.00;100533.72;5126153;28;20012;-60
2023/10/02 01:28:20;;;;;;;2.85;1.95;;;;;;;15.22;100.00;100525.91;5126476;28;20016;-61
2023/10/02 01:30:47;;;;;;;1.85;1.58;;;;;;;15.29;100.00;100537.94;5126330;28;20020;-61
2023/10/02 01:35:40;;;;;;;3.08;1.73;;;;;;;15.29;100.00;100537.94;5126292;28;20019;-62
2023/10/02 01:38:12;;;;;;;4.22;2.80;;;;;;;15.28;100.00;100531.00;5107853;28;20019;-61
2023/10/02 01:40:43;;;;;;;;;;;;;;;15.33;100.00;100526.50;5126548;28;20047;-61
2023/10/02 01:43:14;;;;;;;4.30;1.77;;;;;;;15.27;100.00;100533.66;5126009;28;20315;-60
2023/10/02 01:45:44;;;;;;;3.72;1.95;;;;;;;15.22;100.00;100536.38;5126110;28;20028;-64
2023/10/02 01:48:36;;;;;;;1.90;1.58;;;;;;;15.21;100.00;100535.50;5126101;28;20112;-61
2023/10/02 01:51:15;;;;;;;4.28;2.10;;;;;;;15.20;100.00;100527.72;5125653;28;20085;-61
2023/10/02 01:53:45;;;;;;;3.72;2.05;;;;;;;15.17;100.00;100523.44;5126216;28;20028;-61
2023/10/02 01:56:12;;;;;;;3.38;2.03;;;;;;;15.13;100.00;100513.09;5125905;28;20055;-61
2023/10/02 01:58:42;;;;;;;10.82;2.92;;;;;;;15.17;100.00;100520.81;5125959;28;20027;-61
2023/10/02 02:01:09;;;;;;;3.65;2.05;;;;;;;15.16;100.00;100515.63;5125691;28;20028;-60
2023/10/02 02:03:42;;;;;;;2.15;1.92;;;;;;;15.11;100.00;100513.13;5107540;28;20077;-61
2023/10/02 02:06:08;;;;;;;3.20;2.25;;;;;;;15.14;100.00;100520.88;5125611;28;20019;-62
2023/10/02 02:08:38;;;;;;;4.40;2.13;;;;;;;15.10;100.00;100512.25;5125895;28;20019;-61
2023/10/02 02:11:18;;;;;;;4.63;2.25;;;;;;;15.10;100.00;100514.00;5125526;28;20034;-62
2023/10/02 02:13:48;;;;;;;2.08;1.80;;;;;;;15.18;100.00;100521.66;5125752;28;20292;-61
2023/10/02 02:16:17;;;;;;;2.58;1.73;;;;;;;15.19;100.00;100508.53;5125784;28;20065;-61
2023/10/02 02:18:45;;;;;;;3.00;2.10;;;;;;;15.18;100.00;100513.81;5125631;28;20043;-60
2023/10/02 02:21:17;;;;;;;3.45;2.35;;;;;;;15.24;100.00;100518.88;5124863;28;20026;-61
2023/10/02 02:23:45;;;;;;;6.45;2.25;;;;;;;15.21;100.00;100509.34;5125413;28;20030;-62
2023/10/02 02:26:11;;;;;;;2.65;1.38;;;;;;;15.20;100.00;100502.44;5125570;28;20036;-62
2023/10/02 02:28:45;;;;;;;2.75;1.83;;;;;;;15.24;100.00;100505.78;5125515;28;20061;-61
2023/10/02 02:31:29;;;;;;;3.38;1.67;;;;;;;15.27;100.00;100507.50;5125507;28;20148;-60
2023/10/02 02:33:57;;;;;;;7.05;1.73;;;;;;;15.27;100.00;100505.72;5125587;28;20023;-61
2023/10/02 02:36:22;;;;;;;5.05;2.15;;;;;;;15.28;100.00;100502.22;5125371;28;20068;-61
2023/10/02 02:38:48;;;;;;;8.77;2.05;;;;;;;15.33;100.00;100497.72;5125554;28;20020;-61
2023/10/02 02:41:18;;;;;;;2.08;1.50;;;;;;;15.32;100.00;100500.38;5125058;28;20036;-61
2023/10/02 02:43:46;;;;;;;2.97;2.15;;;;;;;15.36;100.00;100502.00;5106974;28;20126;-61
2023/10/02 02:46:17;;;;;;;2.85;2.00;;;;;;;15.34;100.00;100494.22;5106981;28;20379;-61
2023/10/02 02:48:44;;;;;;;4.18;1.75;;;;;;;15.38;100.00;100488.88;5125378;28;20024;-61
2023/10/02 02:51:18;;;;;;;2.00;1.42;;;;;;;15.35;100.00;100490.69;5125178;28;20106;-61
2023/10/02 02:53:43;;;;;;;3.92;2.10;;;;;;;15.41;100.00;100483.56;5107122;28;20020;-60
2023/10/02 02:56:24;;;;;;;2.50;1.60;;;;;;;15.36;100.00;100486.31;5125288;28;20045;-61
2023/10/02 02:58:51;;;;;;;2.63;1.77;;;;;;;15.40;100.00;100487.94;5125651;28;20024;-60
2023/10/02 03:01:26;;;;;;;2.15;1.40;;;;;;;15.41;100.00;100492.28;5125226;28;20069;-61
2023/10/02 03:03:56;;;;;;;2.72;1.85;;;;;;;15.43;100.00;100484.41;5125262;28;20027;-60
2023/10/02 03:06:22;;;;;;;5.38;2.35;;;;;;;15.45;100.00;100482.56;5125223;28;20079;-61
2023/10/02 03:08:54;;;;;;;4.57;2.40;;;;;;;15.41;100.00;100471.34;5125126;28;20084;-62
2023/10/02 03:11:22;;;;;;;3.75;1.98;;;;;;;15.47;100.00;100483.41;5125065;28;20031;-62
2023/10/02 03:13:50;;;;;;;3.13;1.88;;;;;;;15.45;100.00;100477.34;5107005;28;20413;-62
2023/10/02 03:16:19;;;;;;;3.45;1.65;;;;;;;15.42;100.00;100459.97;5125162;28;20178;-61
2023/10/02 03:18:48;;;;;;;2.95;1.50;;;;;;;15.38;100.00;100463.59;5125169;28;20102;-60
2023/10/02 03:21:24;;;;;;;5.43;1.75;;;;;;;15.33;100.00;100471.56;5124782;28;20023;-60
2023/10/02 03:23:53;;;;;;;4.30;1.67;;;;;;;15.33;100.00;100471.56;5125101;28;20027;-61
2023/10/02 03:29:04;;;;;;;4.22;1.52;;;;;;;15.32;100.00;100464.59;5124819;28;20020;-60
2023/10/02 03:31:34;;;;;;;3.88;1.25;;;;;;;15.33;100.00;100473.31;5126679;28;20032;-62
2023/10/02 03:36:54;;;;;;;4.78;1.40;;;;;;;15.26;100.00;100453.44;5128548;28;20056;-60
2023/10/02 03:39:24;;;;;;;1.17;1.02;;;;;;;15.21;100.00;100456.19;5128404;28;20027;-61
2023/10/02 03:41:55;;;;;;;2.55;1.20;;;;;;;15.19;100.00;100453.63;5128516;28;20048;-60
2023/10/02 03:44:23;;;;;;;2.22;1.58;;;;;;;15.21;100.00;100453.56;5128511;28;20429;-60
2023/10/02 03:46:51;;;;;;;3.03;1.45;;;;;;;15.20;100.00;100454.47;5128653;28;20027;-62
2023/10/02 03:49:18;;;;;;;1.30;1.15;;;;;;;15.00;100.00;100429.72;5128460;28;20027;-60
2023/10/02 03:51:44;;;;;;;3.78;1.42;;;;;;;15.18;100.00;100451.03;5128117;28;20434;-61
2023/10/02 03:54:17;;;;;;;1.60;1.17;;;;;;;15.17;100.00;100465.03;5128314;28;20024;-61
2023/10/02 03:56:55;;;;;;;1.05;0.88;;;;;;;15.14;100.00;100450.28;5128336;28;20042;-60
2023/10/02 03:59:22;;;;;;;0.50;0.50;;;;;;;15.16;100.00;100452.88;5128268;28;20024;-60
2023/10/02 04:01:50;;;;;;;1.58;0.68;;;;;;;15.14;100.00;100460.75;5128081;28;20024;-60
2023/10/02 04:04:24;;;;;;;1.98;1.15;;;;;;;15.11;100.00;100451.22;5128119;28;20024;-61
2023/10/02 04:06:53;;;;;;;6.03;0.73;;;;;;;15.16;100.00;100450.25;5128143;28;20544;-62
2023/10/02 04:09:23;;;;;;;0.93;0.77;;;;;;;15.17;100.00;100457.19;5128017;28;20079;-60
2023/10/02 04:11:54;;;;;;;1.60;1.05;;;;;;;15.15;100.00;100443.28;5127912;28;20052;-60
2023/10/02 04:14:38;;;;;;;0.82;0.82;;;;;;;15.16;100.00;100448.47;5128067;28;20047;-60
2023/10/02 04:17:10;;;;;;;1.00;0.70;;;;;;;15.14;100.00;100442.44;5127918;28;20034;-61
2023/10/02 04:19:40;;;;;;;0.70;0.70;;;;;;;15.13;100.00;100451.16;5127992;28;20024;-60
2023/10/02 04:22:07;;;;;;;0.40;0.40;;;;;;;15.15;100.00;100462.44;5109399;28;20380;-60
2023/10/02 04:24:51;;;;;;;0.73;0.57;;;;;;;15.07;100.00;100438.25;5127779;28;20037;-61
2023/10/02 04:30:22;;;;;;;1.20;1.00;;;;;;;15.13;100.00;100445.09;5095729;28;20032;-60
2023/10/02 04:32:59;;;;;;;2.47;1.17;;;;;;;15.11;100.00;100450.38;5127577;28;20026;-61
2023/10/02 04:38:09;;;;;;;1.75;1.38;;;;;;;15.10;100.00;100456.47;5126824;28;20085;-59
2023/10/02 04:40:51;;;;;;;0.88;0.75;;;;;;;15.11;100.00;100455.59;5127483;28;20019;-61
2023/10/02 04:43:23;;;;;;;;;;;;;;;15.16;100.00;100458.94;5126941;28;20035;-61
2023/10/02 04:45:53;;;;;;;1.33;1.07;;;;;;;15.12;100.00;100459.94;5127134;28;19911;-61
2023/10/02 04:48:38;;;;;;;1.77;1.10;;;;;;;15.14;100.00;100454.66;5127257;28;20035;-61
2023/10/02 04:51:08;;;;;;;1.85;1.10;;;;;;;15.11;100.00;100445.97;5126705;28;20027;-61
2023/10/02 04:53:42;;;;;;;2.75;1.08;;;;;;;15.15;100.00;100445.91;5127306;28;20015;-60
2023/10/02 04:58:49;;;;;;;2.03;1.30;;;;;;;15.19;100.00;100450.16;5126872;28;20444;-61
2023/10/02 05:01:28;;;;;;;1.10;0.90;;;;;;;15.18;100.00;100449.28;5126875;28;20042;-61
2023/10/02 05:03:55;;;;;;;1.00;0.90;;;;;;;15.17;100.00;100457.19;5126944;28;20031;-61
2023/10/02 05:14:52;;;;;;;0.60;0.60;;;;;;;15.15;100.00;100448.50;5108829;28;20143;-62
2023/10/02 05:17:17;;;;;;;0.85;0.75;;;;;;;15.14;100.00;100452.91;5126885;28;20023;-61
2023/10/02 05:19:56;;;;;;;1.70;1.00;;;;;;;15.09;100.00;100434.72;5126512;28;20042;-61
2023/10/02 05:22:27;;;;;;;0.95;0.50;;;;;;;15.13;100.00;100458.19;5125264;28;20020;-60
2023/10/02 05:24:59;;;;;;;1.92;1.27;;;;;;;15.10;100.00;100459.09;5125699;28;20019;-61
2023/10/02 05:27:31;;;;;;;1.63;1.00;;;;;;;15.13;100.00;100455.56;5125126;28;20459;-61
2023/10/02 05:29:59;;;;;;;;;;;;;;;15.15;100.00;100451.13;5125688;28;20427;-62
2023/10/02 05:32:31;;;;;;;5.40;1.00;;;;;;;15.07;100.00;100459.19;5106934;28;19907;-61
2023/10/02 05:35:16;;;;;;;0.60;0.60;;;;;;;15.02;100.00;100446.22;5125489;28;20015;-62
2023/10/02 05:37:45;;;;;;;0.85;0.70;;;;;;;15.05;100.00;100461.84;5125729;28;20039;-62
2023/10/02 05:48:15;;;;;;;0.82;0.80;;;;;;;15.16;100.00;100458.09;5125380;28;20028;-61
2023/10/02 05:50:48;;;;;;;7.17;1.20;;;;;;;15.19;100.00;100453.63;5125745;28;20387;-61
2023/10/02 05:53:18;;;;;;;1.63;1.08;;;;;;;15.21;100.00;100454.44;5126056;28;20055;-60
2023/10/02 05:58:31;;;;;;;5.13;0.90;;;;;;;15.23;100.00;100446.56;5126065;28;20116;-60
2023/10/02 06:01:03;;;;;;;1.70;1.00;;;;;;;15.26;100.00;100454.31;5125748;28;20031;-61
2023/10/02 06:03:36;;;;;;;1.10;1.00;;;;;;;15.26;100.00;100451.69;5125908;28;20480;-60
2023/10/02 06:06:15;;;;;;;2.20;1.25;;;;;;;15.24;100.00;100440.41;5125203;28;20016;-61
2023/10/02 06:08:48;;;;;;;1.48;0.85;;;;;;;15.34;100.00;100462.81;5125938;28;20019;-60
2023/10/02 06:11:26;;;;;;;1.02;0.80;;;;;;;15.39;100.00;100453.97;5125862;28;20033;-60
2023/10/02 06:13:57;;;;;;;2.25;0.90;;;;;;;15.44;100.00;100452.09;5125885;28;20032;-60
2023/10/02 06:16:29;;;;;;;1.70;0.90;;;;;;;15.47;100.00;100460.72;5125989;28;20031;-60
2023/10/02 06:19:01;;;;;;;2.42;1.50;;;;;;;15.51;100.00;100458.84;5125742;28;20023;-60
2023/10/02 06:24:19;;;;;;;2.60;1.33;;;;;;;15.52;100.00;100465.81;5125808;28;20039;-61
2023/10/02 06:26:57;;;;;;;1.40;1.00;;;;;;;15.54;100.00;100473.63;5125750;28;20020;-61
2023/10/02 06:29:35;;;;;;;1.50;1.05;;;;;;;15.59;100.00;100477.81;5125693;28;20083;-60
2023/10/02 06:32:05;;;;;;;1.40;1.02;;;;;;;15.64;100.00;100463.75;5125670;28;20024;-60
2023/10/02 06:34:37;;;;;;;1.35;1.23;;;;;;;15.73;100.00;100473.97;5125763;28;20020;-61
2023/10/02 06:37:11;;;;;;;1.83;1.02;;;;;;;15.80;100.00;100480.72;5125234;28;20031;-62
2023/10/02 06:39:40;;;;;;;1.58;1.13;;;;;;;15.84;100.00;100478.88;5125784;28;20100;-60
2023/10/02 06:42:07;;;;;;;3.25;1.45;;;;;;;15.85;100.00;100483.19;5125206;28;20043;-60
2023/10/02 06:44:52;;;;;;;3.38;1.45;;;;;;;15.80;100.00;100469.41;5125354;28;20024;-60
2023/10/02 06:47:21;;;;;;;2.60;1.45;;;;;;;15.85;100.00;100472.72;5125691;28;20198;-60
2023/10/02 06:49:47;;;;;;;2.15;1.38;;;;;;;15.90;100.00;100467.34;5125456;28;20023;-61
2023/10/02 06:52:15;;;;;;;2.03;1.15;;;;;;;15.98;100.00;100478.50;5125309;28;20023;-62
2023/10/02 06:54:45;;;;;;;4.10;1.50;;;;;;;16.03;100.00;100484.47;5125510;28;20075;-62
2023/10/02 06:57:15;;;;;;;2.35;1.30;;;;;;;16.06;100.00;100483.50;5125398;28;20032;-60
2023/10/02 06:59:51;;;;;;;3.25;1.40;;;;;;;16.09;100.00;100481.66;5125484;28;20038;-60
2023/10/02 07:02:17;;;;;;;2.75;1.15;;;;;;;16.03;100.00;100476.59;5125282;28;20102;-60
2023/10/02 07:04:44;;;;;;;2.22;1.50;;;;;;;16.04;100.00;100473.06;5125459;28;20024;-61
2023/10/02 07:07:12;;;;;;;7.75;1.38;;;;;;;16.12;100.00;100482.47;5109792;28;20061;-61
2023/10/02 07:09:39;;;;;;;3.38;1.30;;;;;;;16.16;100.00;100487.56;5129519;28;20024;-61
2023/10/02 07:12:14;;;;;;;2.33;1.15;;;;;;;16.22;100.00;100497.00;5129535;28;20027;-61
2023/10/02 07:14:43;;;;;;;7.95;1.75;;;;;;;16.17;100.00;100477.94;5129338;28;20096;-61
2023/10/02 07:17:16;;;;;;;2.42;1.42;;;;;;;16.25;100.00;100494.28;5129324;28;20019;-60
2023/10/02 07:19:50;;;;;;;1.30;1.00;;;;;;;16.30;100.00;100491.50;5129217;28;20032;-62
2023/10/02 07:22:23;;;;;;;3.22;1.40;;;;;;;16.30;100.00;100488.88;5128912;28;20031;-62
2023/10/02 07:24:52;;;;;;;1.70;1.30;;;;;;;16.41;100.00;100501.66;5111154;28;20084;-62
2023/10/02 07:27:27;;;;;;;3.30;1.73;;;;;;;16.53;99.55;100501.28;5129000;28;20027;-60
2023/10/02 07:29:54;;;;;;;2.65;1.55;;;;;;;16.60;99.29;100496.69;5129071;28;20015;-61
2023/10/02 07:32:21;;;;;;;1.88;1.40;;;;;;;16.70;98.61;100503.34;5129001;28;20023;-62
2023/10/02 07:34:50;;;;;;;1.27;0.90;;;;;;;16.72;97.85;100487.56;5128977;28;20019;-60
2023/10/02 07:37:21;;;;;;;3.65;1.58;;;;;;;16.81;98.12;100495.13;5128826;28;20031;-60
2023/10/02 07:39:48;;;;;;;3.22;1.65;;;;;;;16.90;97.16;100482.63;5128817;28;20031;-61
2023/10/02 07:42:16;;;;;;;3.92;1.67;;;;;;;17.00;96.99;100480.56;5128305;28;20050;-61
2023/10/02 07:44:41;;;;;;;2.63;1.83;;;;;;;17.20;96.54;100488.59;5128480;28;20092;-61
2023/10/02 07:47:28;;;;;;;3.78;2.15;;;;;;;17.36;96.96;100479.34;5128810;28;20023;-63
2023/10/02 07:49:58;;;;;;;1.85;1.42;;;;;;;17.54;96.75;100483.91;5128525;28;20028;-61
2023/10/02 07:52:35;;;;;;;4.60;1.85;;;;;;;17.73;96.10;100491.13;5128483;28;20015;-60
2023/10/02 07:55:01;;;;;;;4.78;2.03;;;;;;;17.90;95.39;100487.88;5128541;28;20024;-61
2023/10/02 07:57:32;;;;;;;3.95;2.20;;;;;;;17.95;93.29;100485.06;5128599;28;20065;-60
2023/10/02 08:00:00;;;;;;;9.57;2.03;;;;;;;18.09;92.27;100488.03;5128577;28;20195;-62
2023/10/02 08:02:30;;;;;;;5.85;1.70;;;;;;;18.37;91.59;100478.19;5128283;28;20118;-62
2023/10/02 08:04:57;;;;;;;7.43;1.80;;;;;;;18.66;88.94;100477.94;5128344;28;20556;-62
2023/10/02 08:07:24;;;;;;;3.22;1.38;;;;;;;18.86;87.60;100487.63;5127872;28;20031;-62
2023/10/02 08:09:52;;;;;;;2.47;1.40;;;;;;;18.95;87.25;100486.38;5128238;28;20024;-61
2023/10/02 08:12:30;;;;;;;4.03;2.10;;;;;;;19.12;86.50;100490.94;5109860;28;20027;-61
2023/10/02 08:20:31;;;;;;;2.88;1.42;;;;;;;19.61;82.61;100481.81;5127960;28;20039;-60
2023/10/02 08:22:58;;;;;;;2.33;1.60;;;;;;;19.45;80.58;100473.75;5128225;28;20038;-61
2023/10/02 08:25:26;;;;;;;8.02;2.70;;;;;;;19.11;79.17;100472.59;5127801;28;20028;-60
2023/10/02 08:27:57;;;;;;;4.18;2.00;;;;;;;18.89;80.27;100482.25;5127768;28;20019;-61
2023/10/02 08:32:53;;;;;;;2.78;1.60;;;;;;;18.22;79.15;100474.44;5127778;28;20024;-61
2023/10/02 08:35:19;;;;;;;3.30;1.80;;;;;;;18.15;79.96;100472.94;5127890;28;20080;-61
2023/10/02 08:37:45;;;;;;;2.33;1.50;;;;;;;18.12;80.17;100473.06;5127704;28;20024;-60
2023/10/02 08:40:14;;;;;;;1.55;1.10;;;;;;;18.04;80.72;100475.97;5127420;28;20026;-60
2023/10/02 08:42:46;;;;;;;2.83;1.67;;;;;;;18.20;80.75;100471.00;5127479;28;20116;-61
2023/10/02 08:45:18;;;;;;;2.97;1.67;;;;;;;18.27;79.76;100477.72;5127498;28;20076;-61
2023/10/02 08:47:47;;;;;;;5.22;2.10;;;;;;;18.26;79.82;100472.53;5127456;28;20020;-60
2023/10/02 08:50:16;;;;;;;5.68;2.08;;;;;;;18.32;78.38;100481.00;5127411;28;20058;-61
2023/10/02 08:52:52;;;;;;;3.03;1.92;;;;;;;18.44;78.27;100484.06;5127349;28;20058;-62
2023/10/02 08:55:33;;;;;;;2.60;1.58;;;;;;;18.42;77.69;100486.75;5127459;28;20019;-60
2023/10/02 09:01:17;;;;;;;1.90;1.70;;;;;;;18.26;78.04;100481.25;5127577;28;20026;-62
2023/10/02 09:06:41;;;;;;;4.70;2.00;;;;;;;18.13;78.42;100478.25;5127083;28;20118;-61
2023/10/02 09:11:44;;;;;;;4.25;1.95;;;;;;;17.96;78.78;100478.88;5127128;28;20083;-60
2023/10/02 09:14:21;;;;;;;2.58;1.45;;;;;;;17.92;78.40;100483.38;5127094;28;20034;-61
2023/10/02 09:17:07;;;;;;;5.63;1.85;;;;;;;17.92;78.89;100474.66;5126936;28;20027;-61
2023/10/02 09:19:34;;;;;;;2.95;1.88;;;;;;;17.89;79.53;100477.41;5126644;28;20076;-61
2023/10/02 09:22:11;;;;;;;3.45;1.80;;;;;;;17.92;79.49;100477.31;5126558;28;20026;-61
2023/10/02 09:24:38;;;;;;;5.35;1.73;;;;;;;17.97;79.94;100483.25;5126673;28;20035;-61
2023/10/02 09:27:30;;;;;;;1.80;1.40;;;;;;;18.14;80.07;100487.00;5126679;28;20431;-60
2023/10/02 09:32:50;;;;;;;4.65;1.75;;;;;;;18.15;78.85;100488.69;5126707;28;19937;-61
2023/10/02 09:36:05;;;;;;;4.90;2.30;;;;;;;18.08;79.07;100495.97;5126692;28;20026;-60
2023/10/02 09:38:10;;;;;;;;;;;;;;;18.12;78.75;100496.69;5115843;28;20099;-60
2023/10/02 09:40:54;;;;;;;3.10;1.50;;;;;;;18.06;79.30;100482.00;5126432;28;19908;-60
2023/10/02 09:43:24;;;;;;;3.95;1.50;;;;;;;18.08;79.69;100469.69;5126538;28;20039;-61
2023/10/02 09:46:00;;;;;;;7.82;1.83;;;;;;;18.19;79.59;100482.44;5108054;28;20080;-62
2023/10/02 09:48:46;;;;;;;3.20;1.75;;;;;;;18.32;78.92;100483.63;5126628;28;20119;-60
2023/10/02 09:51:27;;;;;;;3.22;1.77;;;;;;;18.37;77.98;100464.22;5126146;28;20020;-61
2023/10/02 09:54:08;;;;;;;2.13;1.63;;;;;;;18.60;79.08;100472.94;5126181;28;20030;-60
2023/10/02 09:56:54;;;;;;;6.20;1.73;;;;;;;19.04;78.17;100474.63;5126491;28;20192;-62
2023/10/02 09:59:23;;;;;;;6.30;2.03;;;;;;;19.40;76.67;100473.09;5108025;28;20068;-61
2023/10/02 10:07:52;;;;;;;3.35;1.55;;;;;;;20.71;72.63;100477.56;5126052;28;20027;-60
2023/10/02 10:10:45;;;;;;;2.78;1.70;;;;;;;;;;5125981;28;20092;-60
2023/10/02 10:13:24;;;;;;;2.95;1.35;;;;;;;22.22;70.34;100478.56;5125873;28;20024;-61
2023/10/02 10:15:49;;;;;;;7.25;1.60;;;;;;;22.28;67.98;100465.81;5126038;28;20030;-60
2023/10/02 10:18:17;;;;;;;5.65;1.98;;;;;;;22.17;67.31;100462.97;5126059;28;20083;-61
2023/10/02 10:20:44;;;;;;;2.65;1.75;;;;;;;22.17;69.19;100468.25;5125456;28;20026;-61
2023/10/02 10:23:34;;;;;;;12.88;1.15;;;;;;;22.03;68.03;100476.94;5126042;28;20020;-60
2023/10/02 10:26:09;;;;;;;3.28;1.27;;;;;;;21.64;67.87;100477.25;5125943;28;20050;-61
2023/10/02 10:28:50;;;;;;;1.90;1.20;;;;;;;21.20;68.01;100491.84;5126066;28;20034;-61
2023/10/02 10:31:29;;;;;;;4.38;1.98;;;;;;;20.67;67.42;100465.47;5125936;28;20084;-61
2023/10/02 10:33:56;;;;;;;2.40;1.67;;;;;;;20.33;68.17;100464.50;5107444;28;20053;-60
2023/10/02 10:36:36;;;;;;;3.67;1.80;;;;;;;19.97;67.63;100477.53;5125555;28;20035;-60
2023/10/02 10:39:30;;;;;;;4.82;1.45;;;;;;;19.78;68.95;100482.81;5125755;28;20137;-61
2023/10/02 10:41:57;;;;;;;3.60;1.77;;;;;;;19.63;69.20;100485.22;5127508;28;20070;-61
2023/10/02 10:44:32;;;;;;;1.30;0.93;;;;;;;19.91;69.64;100483.97;5129914;28;20060;-61
2023/10/02 10:46:59;;;;;;;2.85;1.48;;;;;;;20.70;69.65;100473.22;5130010;28;20023;-60
2023/10/02 10:49:26;;;;;;;2.78;1.35;;;;;;;21.37;66.17;100479.56;5129680;28;20028;-61
2023/10/02 10:51:52;;;;;;;5.70;2.42;;;;;;;21.10;65.92;100474.78;5129491;28;20023;-62
2023/10/02 10:54:19;;;;;;;1.85;1.02;;;;;;;20.77;66.92;100482.53;5129807;28;20028;-61
2023/10/02 10:56:55;;;;;;;3.58;1.20;;;;;;;20.50;67.37;100475.06;5129748;28;20053;-61
2023/10/02 10:59:32;;;;;;;2.70;1.50;;;;;;;20.52;67.95;100477.63;5129632;28;20027;-60
2023/10/02 11:02:12;;;;;;;4.65;1.33;;;;;;;20.50;67.33;100475.06;5129637;28;20023;-60
2023/10/02 11:04:41;;;;;;;2.58;1.40;;;;;;;20.35;67.46;100481.09;5129629;28;20015;-61
2023/10/02 11:07:19;;;;;;;2.30;1.35;;;;;;;20.52;67.66;100472.34;5129225;28;20024;-61
2023/10/02 11:10:22;;;;;;;9.90;1.50;;;;;;;20.88;66.64;100467.97;5129377;28;20015;-61
2023/10/02 11:12:56;;;;;;;11.10;2.15;;;;;;;20.91;65.13;100457.25;5129296;28;20019;-61
2023/10/02 11:18:18;;;;;;;2.22;1.40;;;;;;;20.14;65.87;100463.63;5129321;28;20091;-61
2023/10/02 11:20:55;;;;;;;3.08;1.88;;;;;;;20.10;66.56;100467.31;5129046;28;20034;-60
2023/10/02 11:23:45;;;;;;;4.30;1.40;;;;;;;20.04;66.94;100450.03;5129361;28;20034;-61
2023/10/02 11:26:15;;;;;;;12.55;2.10;;;;;;;19.88;66.75;100456.91;5110711;28;20027;-60
2023/10/02 11:28:44;;;;;;;2.45;1.90;;;;;;;19.82;67.49;100455.41;5129324;28;20058;-61
2023/10/02 11:31:45;;;;;;;5.97;1.83;;;;;;;19.90;67.11;100457.69;5110675;28;20027;-59
2023/10/02 11:34:08;;;;;;;2.97;1.70;;;;;;;19.98;67.20;100459.97;5122236;28;20031;-61
2023/10/02 11:36:38;;;;;;;6.53;1.50;;;;;;;19.91;66.35;100462.88;5128828;28;20026;-61
2023/10/02 11:39:16;;;;;;;1.65;1.35;;;;;;;19.74;66.58;100457.53;5129129;28;20031;-61
2023/10/02 11:41:43;;;;;;;2.63;1.70;;;;;;;19.55;66.96;100467.13;5128543;28;20067;-62
2023/10/02 11:44:12;;;;;;;5.85;1.52;;;;;;;19.41;66.59;100470.38;5128556;28;20024;-61
2023/10/02 11:46:41;;;;;;;2.42;1.27;;;;;;;19.22;66.59;100464.25;5128774;28;20027;-61
2023/10/02 11:49:15;;;;;;;4.90;1.92;;;;;;;19.11;66.86;100480.47;5110386;28;20426;-60
2023/10/02 11:51:43;;;;;;;2.28;1.30;;;;;;;18.93;67.06;100464.56;5109902;28;20027;-60
2023/10/02 11:54:11;;;;;;;6.13;1.73;;;;;;;18.82;67.41;100462.38;5128674;28;20083;-61
2023/10/02 11:56:38;;;;;;;3.30;1.75;;;;;;;18.88;67.63;100453.38;5128578;28;20043;-60
2023/10/02 11:59:03;;;;;;;4.03;2.17;;;;;;;18.95;68.52;100447.78;5128318;28;20023;-60
2023/10/02 12:01:29;;;;;;;1.77;1.52;;;;;;;19.03;68.18;100449.22;5128404;28;20052;-60
2023/10/02 12:03:57;;;;;;;4.90;1.98;;;;;;;18.95;67.93;100449.56;5128472;28;20024;-60
2023/10/02 12:06:26;;;;;;;3.35;1.67;;;;;;;18.91;67.70;100451.44;5109632;28;20024;-60
2023/10/02 12:08:56;;;;;;;3.90;1.90;;;;;;;18.93;67.79;100448.78;5128276;28;20031;-60
2023/10/02 12:11:24;;;;;;;1.92;1.40;;;;;;;18.90;67.39;100436.59;5128182;28;20028;-60
2023/10/02 12:13:50;;;;;;;3.00;1.52;;;;;;;18.90;67.26;100448.88;5128233;28;20547;-60
2023/10/02 12:16:15;;;;;;;4.50;2.38;;;;;;;18.82;66.80;100444.81;5128210;28;20025;-61
2023/10/02 12:18:41;;;;;;;2.95;1.50;;;;;;;18.82;67.21;100438.69;5128050;28;20143;-62
2023/10/02 12:21:14;;;;;;;1.85;1.38;;;;;;;18.91;67.11;100450.63;5128048;28;20023;-61
2023/10/02 12:23:43;;;;;;;3.65;1.70;;;;;;;18.92;66.98;100436.53;5127809;28;20029;-61
2023/10/02 12:26:12;;;;;;;4.35;1.15;;;;;;;18.99;66.94;100442.38;5127987;28;20038;-61
2023/10/02 12:28:37;;;;;;;2.28;1.55;;;;;;;19.07;66.75;100432.41;5127629;28;20030;-61
2023/10/02 12:31:21;;;;;;;4.20;2.00;;;;;;;19.14;67.14;100430.34;5127945;28;20103;-60
2023/10/02 12:33:49;;;;;;;3.10;1.95;;;;;;;19.22;66.14;100432.69;5127780;28;20471;-62
2023/10/02 12:36:18;;;;;;;4.03;1.95;;;;;;;19.19;66.04;100425.75;5127679;28;20047;-60
2023/10/02 12:38:44;;;;;;;2.75;1.58;;;;;;;19.14;65.81;100423.31;5127592;28;20502;-60
2023/10/02 12:41:30;;;;;;;7.20;1.55;;;;;;;19.05;65.20;100418.44;5127445;28;20487;-60
2023/10/02 12:43:56;;;;;;;2.63;1.17;;;;;;;18.96;65.21;100422.34;5127610;28;20028;-61
2023/10/02 12:46:23;;;;;;;2.30;1.60;;;;;;;18.91;64.75;100416.41;5127421;28;20083;-59
2023/10/02 12:48:50;;;;;;;3.42;1.50;;;;;;;18.89;64.23;100420.88;5127494;28;20027;-60